Time;durP1;ratioP1;P1;durP2;ratioP2;P2;SDS_P1;SDS_P2;PMS_P1;PMS_P2;Temp;Humidity;BMP_temperature;BMP_pressure;BME280_temperature;BME280_humidity;BME280_pressure;Samples;Min_cycle;Max_cycle;Signal;HPM_P1;HPM_P2
2023/10/18 00:00:04;;;;;;;;;;;18.30;40.50;;;;;;5051550;28;19920;-65
2023/10/18 00:02:31;;;;;;;;;;;18.30;40.40;;;;;;5050416;28;19921;-65
2023/10/18 00:04:58;;;;;;;;;;;18.20;40.30;;;;;;5049838;28;19930;-64
2023/10/18 00:07:27;;;;;;;;;;;18.20;40.30;;;;;;5050849;28;19929;-65
2023/10/18 00:09:55;;;;;;;;;;;18.20;40.30;;;;;;5035273;28;20245;-65
2023/10/18 00:12:23;;;;;;;;;;;18.20;40.30;;;;;;5049658;28;19925;-65
2023/10/18 00:14:50;;;;;;;;;;;18.20;40.30;;;;;;5048813;28;19928;-64
2023/10/18 00:17:17;;;;;;;;;;;18.20;40.30;;;;;;5049150;28;19956;-65
2023/10/18 00:19:44;;;;;;;;;;;18.20;40.30;;;;;;5049286;28;19921;-65
2023/10/18 00:22:12;;;;;;;;;;;18.20;40.30;;;;;;5050125;28;20312;-64
2023/10/18 00:24:40;;;;;;;;;;;18.20;40.30;;;;;;5049256;28;20031;-64
2023/10/18 00:27:09;;;;;;;;;;;18.20;40.30;;;;;;5042404;28;19970;-65
2023/10/18 00:29:35;;;;;;;;;;;18.20;40.30;;;;;;5050145;28;19971;-64
2023/10/18 00:32:03;;;;;;;;;;;18.20;40.30;;;;;;5030549;28;19925;-65
2023/10/18 00:34:29;;;;;;;;;;;18.20;40.20;;;;;;5045019;28;20236;-64
2023/10/18 00:36:58;;;;;;;;;;;18.20;40.20;;;;;;5053692;28;19967;-65
2023/10/18 00:39:32;;;;;;;;;;;18.20;40.20;;;;;;5054182;28;19927;-64
2023/10/18 00:42:23;;;;;;;;;;;18.20;40.20;;;;;;5054046;28;19920;-64
2023/10/18 00:44:52;;;;;;;;;;;18.20;40.20;;;;;;5052466;28;20006;-65
2023/10/18 00:47:19;;;;;;;;;;;18.20;40.10;;;;;;5051705;28;20558;-64
2023/10/18 00:49:47;;;;;;;;;;;18.20;40.10;;;;;;5052785;28;19967;-65
2023/10/18 00:52:15;;;;;;;;;;;18.20;40.10;;;;;;5053678;28;19925;-65
2023/10/18 00:54:44;;;;;;;;;;;18.20;40.10;;;;;;5053917;28;19983;-65
2023/10/18 00:57:12;;;;;;;;;;;18.10;40.00;;;;;;5053818;28;19970;-64
2023/10/18 00:59:40;;;;;;;;;;;18.10;40.00;;;;;;5048271;28;19921;-64
2023/10/18 01:02:11;;;;;;;;;;;18.20;40.00;;;;;;5052950;28;19921;-65
2023/10/18 01:04:37;;;;;;;;;;;18.10;39.90;;;;;;5052952;28;20023;-65
2023/10/18 01:07:11;;;;;;;;;;;18.10;40.00;;;;;;5052629;28;19925;-65
2023/10/18 01:09:43;;;;;;;;;;;18.10;39.90;;;;;;5050199;28;19921;-65
2023/10/18 01:12:11;;;;;;;;;;;18.10;39.90;;;;;;5050860;28;20016;-65
2023/10/18 01:14:40;;;;;;;;;;;18.10;39.90;;;;;;5044777;28;19921;-65
2023/10/18 01:17:07;;;;;;;;;;;18.10;39.90;;;;;;5040820;28;19932;-65
2023/10/18 01:19:33;;;;;;;;;;;18.10;39.90;;;;;;5047398;28;19932;-65
2023/10/18 01:22:00;;;;;;;;;;;18.10;39.90;;;;;;5042212;28;19932;-65
2023/10/18 01:24:34;;;;;;;;;;;18.10;39.90;;;;;;5047675;28;19975;-65
2023/10/18 01:27:02;;;;;;;;;;;18.10;39.80;;;;;;5052617;28;19921;-65
2023/10/18 01:29:29;;;;;;;;;;;18.10;39.80;;;;;;5051785;28;19928;-65
2023/10/18 01:31:55;;;;;;;;;;;18.10;39.80;;;;;;5053794;28;19944;-65
2023/10/18 01:34:23;;;;;;;;;;;18.10;39.80;;;;;;5051685;28;19925;-64
2023/10/18 01:36:50;;;;;;;;;;;18.10;39.80;;;;;;5051857;28;19964;-65
2023/10/18 01:39:21;;;;;;;;;;;18.10;39.80;;;;;;5051198;28;19920;-65
2023/10/18 01:41:49;;;;;;;;;;;18.10;39.80;;;;;;5051559;28;19921;-65
2023/10/18 01:44:27;;;;;;;;;;;18.10;39.70;;;;;;5050856;28;19956;-65
2023/10/18 01:46:55;;;;;;;;;;;18.10;39.70;;;;;;5051627;28;19927;-64
2023/10/18 01:49:24;;;;;;;;;;;18.10;39.70;;;;;;5051432;28;19925;-65
2023/10/18 01:51:52;;;;;;;;;;;18.10;39.80;;;;;;5043513;28;20366;-65
2023/10/18 01:54:20;;;;;;;;;;;18.10;39.70;;;;;;5051130;28;20012;-63
2023/10/18 01:56:47;;;;;;;;;;;18.00;39.60;;;;;;5051188;28;19921;-64
2023/10/18 01:59:17;;;;;;;;;;;18.10;39.70;;;;;;5043434;28;19929;-64
2023/10/18 02:01:45;;;;;;;;;;;18.00;39.70;;;;;;5052927;28;19925;-64
2023/10/18 02:04:23;;;;;;;;;;;18.00;39.70;;;;;;5051327;28;19982;-64
2023/10/18 02:06:50;;;;;;;;;;;18.00;39.70;;;;;;5051922;28;20370;-64
2023/10/18 02:09:17;;;;;;;;;;;18.00;39.60;;;;;;5051746;28;19929;-64
2023/10/18 02:11:44;;;;;;;;;;;18.00;39.70;;;;;;5051341;28;19990;-64
2023/10/18 02:14:13;;;;;;;;;;;18.00;39.70;;;;;;5051156;28;19936;-64
2023/10/18 02:16:45;;;;;;;;;;;18.00;39.70;;;;;;5051543;28;20366;-64
2023/10/18 02:19:13;;;;;;;;;;;18.00;39.70;;;;;;5052225;28;19979;-65
2023/10/18 02:21:41;;;;;;;;;;;18.00;39.70;;;;;;5051226;28;20144;-65
2023/10/18 02:24:11;;;;;;;;;;;18.00;39.60;;;;;;5051116;28;19955;-64
2023/10/18 02:26:44;;;;;;;;;;;18.00;39.60;;;;;;5050744;28;19931;-64
2023/10/18 02:29:13;;;;;;;;;;;18.00;39.70;;;;;;5052271;28;19921;-64
2023/10/18 02:31:40;;;;;;;;;;;18.00;39.70;;;;;;5050922;28;20016;-64
2023/10/18 02:34:09;;;;;;;;;;;18.00;39.60;;;;;;5050034;28;19940;-64
2023/10/18 02:36:39;;;;;;;;;;;18.00;39.60;;;;;;5051916;28;20192;-64
2023/10/18 02:39:06;;;;;;;;;;;18.00;39.60;;;;;;5044137;28;20559;-64
2023/10/18 02:41:34;;;;;;;;;;;18.00;39.60;;;;;;5050601;28;19927;-64
2023/10/18 02:44:03;;;;;;;;;;;18.00;39.60;;;;;;5042312;28;19921;-64
2023/10/18 02:46:33;;;;;;;;;;;18.00;39.60;;;;;;5051222;28;19920;-64
2023/10/18 02:49:00;;;;;;;;;;;18.00;39.60;;;;;;5051036;28;19927;-65
2023/10/18 02:51:29;;;;;;;;;;;18.00;39.60;;;;;;5045458;28;19925;-65
2023/10/18 02:54:07;;;;;;;;;;;18.00;39.60;;;;;;5049644;28;20325;-64
2023/10/18 02:56:37;;;;;;;;;;;18.00;39.60;;;;;;5047225;28;19925;-65
2023/10/18 02:59:07;;;;;;;;;;;18.00;39.60;;;;;;5043271;28;19971;-65
2023/10/18 03:01:36;;;;;;;;;;;18.00;39.60;;;;;;5050236;28;19925;-64
2023/10/18 03:04:07;;;;;;;;;;;17.90;39.50;;;;;;5049942;28;19947;-64
2023/10/18 03:06:36;;;;;;;;;;;18.00;39.60;;;;;;5051621;28;19931;-65
2023/10/18 03:09:03;;;;;;;;;;;17.90;39.50;;;;;;5042025;28;19924;-64
2023/10/18 03:11:31;;;;;;;;;;;18.00;39.60;;;;;;5051972;28;20378;-64
2023/10/18 03:13:58;;;;;;;;;;;17.90;39.50;;;;;;5041834;28;19929;-64
2023/10/18 03:16:39;;;;;;;;;;;17.90;39.50;;;;;;5043908;28;19932;-64
2023/10/18 03:19:12;;;;;;;;;;;17.90;39.50;;;;;;5043307;28;19928;-64
2023/10/18 03:21:41;;;;;;;;;;;17.90;39.50;;;;;;5050625;28;20539;-64
2023/10/18 03:24:09;;;;;;;;;;;17.90;39.50;;;;;;5049833;28;19921;-64
2023/10/18 03:26:40;;;;;;;;;;;17.90;39.50;;;;;;5047357;28;19971;-64
2023/10/18 03:29:11;;;;;;;;;;;17.90;39.50;;;;;;5046405;28;19940;-64
2023/10/18 03:31:40;;;;;;;;;;;17.90;40.00;;;;;;5046452;28;20030;-64
2023/10/18 03:34:13;;;;;;;;;;;17.90;39.40;;;;;;5047387;28;19964;-64
2023/10/18 03:36:48;;;;;;;;;;;17.90;39.40;;;;;;5049882;28;19928;-64
2023/10/18 03:39:16;;;;;;;;;;;17.90;39.40;;;;;;5050457;28;19976;-64
2023/10/18 03:41:43;;;;;;;;;;;17.90;39.40;;;;;;5050295;28;19974;-64
2023/10/18 03:44:13;;;;;;;;;;;17.90;39.40;;;;;;5050017;28;19921;-64
2023/10/18 03:46:46;;;;;;;;;;;17.90;39.40;;;;;;5049679;28;19921;-65
2023/10/18 03:49:18;;;;;;;;;;;17.90;39.40;;;;;;5049664;28;20261;-64
2023/10/18 03:51:47;;;;;;;;;;;17.90;39.40;;;;;;5049879;28;19928;-64
2023/10/18 03:54:14;;;;;;;;;;;17.90;39.40;;;;;;5051001;28;19921;-64
2023/10/18 03:56:43;;;;;;;;;;;17.90;39.40;;;;;;5049856;28;19931;-64
2023/10/18 03:59:20;;;;;;;;;;;17.90;39.40;;;;;;5041646;28;20340;-64
2023/10/18 04:02:02;;;;;;;;;;;17.90;39.40;;;;;;5051249;28;20260;-64
2023/10/18 04:04:34;;;;;;;;;;;17.90;39.40;;;;;;5048395;28;19927;-64
2023/10/18 04:07:12;;;;;;;;;;;17.90;39.40;;;;;;5050030;28;19920;-65
2023/10/18 04:09:40;;;;;;;;;;;17.90;39.40;;;;;;5048852;28;19921;-65
2023/10/18 04:12:08;;;;;;;;;;;17.90;39.40;;;;;;5049337;28;19921;-64
2023/10/18 04:14:35;;;;;;;;;;;17.90;39.40;;;;;;5049398;28;19929;-64
2023/10/18 04:17:09;;;;;;;;;;;17.90;39.40;;;;;;5050400;28;19932;-64
2023/10/18 04:19:36;;;;;;;;;;;17.90;39.40;;;;;;5041399;28;19999;-64
2023/10/18 04:22:08;;;;;;;;;;;17.90;39.30;;;;;;5038278;28;19929;-64
2023/10/18 04:24:35;;;;;;;;;;;17.90;39.30;;;;;;5046547;28;19925;-65
2023/10/18 04:27:04;;;;;;;;;;;17.90;39.40;;;;;;5049782;28;19932;-65
2023/10/18 04:29:33;;;;;;;;;;;17.90;39.40;;;;;;5045322;28;19920;-65
2023/10/18 04:32:03;;;;;;;;;;;17.90;39.30;;;;;;5050009;28;19925;-65
2023/10/18 04:34:33;;;;;;;;;;;17.90;39.30;;;;;;5048460;28;19952;-65
2023/10/18 04:37:05;;;;;;;;;;;17.80;39.30;;;;;;5049204;28;20012;-65
2023/10/18 04:39:34;;;;;;;;;;;17.90;39.30;;;;;;5049203;28;19920;-64
2023/10/18 04:42:03;;;;;;;;;;;17.80;39.30;;;;;;5051206;28;19928;-65
2023/10/18 04:44:34;;;;;;;;;;;17.80;39.30;;;;;;5037334;28;19920;-65
2023/10/18 04:47:03;;;;;;;;;;;17.80;39.20;;;;;;5049541;28;19962;-65
2023/10/18 04:49:36;;;;;;;;;;;17.80;39.20;;;;;;5047932;28;19925;-65
2023/10/18 04:52:06;;;;;;;;;;;17.80;39.20;;;;;;5040580;28;19939;-65
2023/10/18 04:54:37;;;;;;;;;;;17.80;39.20;;;;;;5042577;28;19929;-65
2023/10/18 04:57:09;;;;;;;;;;;17.80;39.30;;;;;;5049747;28;19936;-64
2023/10/18 04:59:44;;;;;;;;;;;17.80;39.20;;;;;;5049403;28;19925;-65
2023/10/18 05:02:16;;;;;;;;;;;17.80;39.20;;;;;;5051200;28;19964;-65
2023/10/18 05:04:42;;;;;;;;;;;17.80;39.20;;;;;;5049587;28;19921;-65
2023/10/18 05:07:15;;;;;;;;;;;17.80;39.10;;;;;;5049982;28;19921;-65
2023/10/18 05:09:43;;;;;;;;;;;17.80;39.10;;;;;;5044059;28;19971;-65
2023/10/18 05:12:27;;;;;;;;;;;17.80;39.10;;;;;;5049681;28;19956;-65
2023/10/18 05:15:06;;;;;;;;;;;17.80;39.10;;;;;;5046604;28;19921;-65
2023/10/18 05:17:38;;;;;;;;;;;17.80;39.00;;;;;;5046384;28;20242;-65
2023/10/18 05:20:16;;;;;;;;;;;17.80;39.00;;;;;;5048883;28;19925;-64
2023/10/18 05:22:44;;;;;;;;;;;17.80;39.00;;;;;;5042859;28;19932;-64
2023/10/18 05:25:15;;;;;;;;;;;17.80;39.00;;;;;;5038555;28;19921;-64
2023/10/18 05:27:59;;;;;;;;;;;17.80;38.90;;;;;;5044765;28;19925;-64
2023/10/18 05:30:26;;;;;;;;;;;17.80;38.90;;;;;;5052841;28;19921;-65
2023/10/18 05:33:02;;;;;;;;;;;17.70;38.80;;;;;;5050682;28;19934;-65
2023/10/18 05:35:33;;;;;;;;;;;17.80;38.90;;;;;;5048122;28;20033;-65
2023/10/18 05:38:06;;;;;;;;;;;17.70;38.80;;;;;;5041210;28;19948;-65
2023/10/18 05:40:49;;;;;;;;;;;17.70;38.80;;;;;;5049033;28;19925;-65
2023/10/18 05:43:23;;;;;;;;;;;17.70;38.80;;;;;;5045676;28;19975;-65
2023/10/18 05:45:50;;;;;;;;;;;17.70;38.80;;;;;;5049225;28;19927;-64
2023/10/18 05:48:18;;;;;;;;;;;17.70;38.80;;;;;;5050266;28;20023;-65
2023/10/18 05:50:49;;;;;;;;;;;17.70;38.70;;;;;;5051030;28;20278;-64
2023/10/18 05:53:18;;;;;;;;;;;17.70;38.70;;;;;;5040386;28;20020;-64
2023/10/18 05:55:53;;;;;;;;;;;17.70;38.60;;;;;;5041554;28;20285;-64
2023/10/18 05:58:25;;;;;;;;;;;17.70;38.60;;;;;;5052545;28;19921;-64
2023/10/18 06:00:52;;;;;;;;;;;17.70;38.60;;;;;;5053782;28;19921;-64
2023/10/18 06:03:22;;;;;;;;;;;17.70;38.60;;;;;;5052331;28;19921;-64
2023/10/18 06:05:51;;;;;;;;;;;17.70;38.60;;;;;;5051866;28;20370;-64
2023/10/18 06:08:18;;;;;;;;;;;17.70;38.60;;;;;;5051377;28;19929;-64
2023/10/18 06:10:45;;;;;;;;;;;17.70;38.60;;;;;;5052065;28;19978;-64
2023/10/18 06:13:21;;;;;;;;;;;17.70;38.60;;;;;;5050309;28;19932;-64
2023/10/18 06:15:50;;;;;;;;;;;17.70;38.60;;;;;;5050954;28;20075;-64
2023/10/18 06:18:18;;;;;;;;;;;17.70;38.60;;;;;;5051299;28;19921;-64
2023/10/18 06:20:45;;;;;;;;;;;17.70;38.50;;;;;;5051289;28;19928;-64
2023/10/18 06:25:57;;;;;;;;;;;17.70;38.50;;;;;;5050866;28;19920;-64
2023/10/18 06:28:26;;;;;;;;;;;17.70;38.50;;;;;;5062747;28;19921;-64
2023/10/18 06:30:53;;;;;;;;;;;17.70;38.50;;;;;;5047980;28;19927;-64
2023/10/18 06:33:21;;;;;;;;;;;17.70;38.50;;;;;;5038462;28;19921;-64
2023/10/18 06:35:52;;;;;;;;;;;17.70;38.50;;;;;;5046642;28;20019;-64
2023/10/18 06:38:22;;;;;;;;;;;17.70;38.50;;;;;;5047460;28;19927;-64
2023/10/18 06:40:51;;;;;;;;;;;17.70;38.50;;;;;;5046826;28;19963;-64
2023/10/18 06:43:20;;;;;;;;;;;17.70;38.50;;;;;;5039432;28;19947;-64
2023/10/18 06:45:50;;;;;;;;;;;17.70;38.50;;;;;;5042865;28;19921;-64
2023/10/18 06:48:17;;;;;;;;;;;17.60;38.40;;;;;;5043500;28;20020;-64
2023/10/18 06:50:46;;;;;;;;;;;17.60;38.40;;;;;;5046394;28;23706;-64
2023/10/18 06:53:15;;;;;;;;;;;17.60;38.50;;;;;;5050788;28;19921;-64
2023/10/18 06:55:45;;;;;;;;;;;17.60;38.50;;;;;;5049565;28;19921;-64
2023/10/18 06:58:13;;;;;;;;;;;17.70;38.70;;;;;;5047167;28;19964;-64
2023/10/18 07:00:43;;;;;;;;;;;17.60;38.80;;;;;;5037511;28;19920;-63
2023/10/18 07:03:16;;;;;;;;;;;17.70;38.90;;;;;;5045095;28;19925;-63
2023/10/18 07:05:46;;;;;;;;;;;17.70;39.00;;;;;;5047765;28;19920;-63
2023/10/18 07:08:19;;;;;;;;;;;17.70;39.00;;;;;;5046343;28;20012;-64
2023/10/18 07:10:54;;;;;;;;;;;17.70;39.10;;;;;;5048456;28;20406;-64
2023/10/18 07:13:24;;;;;;;;;;;17.70;39.10;;;;;;5046799;28;19931;-63
2023/10/18 07:15:51;;;;;;;;;;;17.70;39.10;;;;;;5048641;28;20020;-64
2023/10/18 07:18:20;;;;;;;;;;;17.70;39.20;;;;;;5049221;28;19936;-64
2023/10/18 07:20:49;;;;;;;;;;;17.70;39.20;;;;;;5045266;28;20053;-64
2023/10/18 07:23:21;;;;;;;;;;;17.70;39.20;;;;;;5049812;28;20336;-63
2023/10/18 07:25:48;;;;;;;;;;;17.70;39.20;;;;;;5048412;28;20613;-63
2023/10/18 07:28:14;;;;;;;;;;;17.70;39.30;;;;;;5043691;28;19967;-64
2023/10/18 07:30:46;;;;;;;;;;;17.70;39.30;;;;;;5049743;28;19921;-63
2023/10/18 07:33:15;;;;;;;;;;;17.80;39.40;;;;;;5049007;28;19967;-63
2023/10/18 07:35:45;;;;;;;;;;;17.70;39.40;;;;;;5045522;28;19933;-63
2023/10/18 07:38:13;;;;;;;;;;;17.80;39.40;;;;;;5049625;28;19921;-63
2023/10/18 07:40:41;;;;;;;;;;;17.80;39.50;;;;;;5050481;28;19921;-62
2023/10/18 07:43:12;;;;;;;;;;;17.80;39.70;;;;;;5043323;28;19991;-63
2023/10/18 07:45:39;;;;;;;;;;;17.80;39.70;;;;;;5044529;28;19999;-63
2023/10/18 07:48:06;;;;;;;;;;;17.80;39.80;;;;;;5048174;28;19921;-63
2023/10/18 07:50:41;;;;;;;;;;;17.80;39.90;;;;;;5048545;28;19925;-63
2023/10/18 07:53:12;;;;;;;;;;;17.80;39.90;;;;;;5039127;28;20016;-63
2023/10/18 07:55:41;;;;;;;;;;;17.80;39.90;;;;;;5050668;28;19960;-63
2023/10/18 07:58:21;;;;;;;;;;;17.80;40.00;;;;;;5049861;28;19920;-64
2023/10/18 08:01:07;;;;;;;;;;;17.80;40.00;;;;;;5046716;28;19921;-64
2023/10/18 08:03:33;;;;;;;;;;;17.90;40.20;;;;;;5044412;28;19925;-63
2023/10/18 08:06:06;;;;;;;;;;;17.90;40.20;;;;;;5049517;28;19936;-63
2023/10/18 08:08:36;;;;;;;;;;;17.90;40.20;;;;;;5048496;28;19921;-63
2023/10/18 08:11:06;;;;;;;;;;;17.90;40.30;;;;;;5044408;28;20374;-64
2023/10/18 08:13:43;;;;;;;;;;;17.90;40.30;;;;;;5045345;28;19921;-63
2023/10/18 08:16:10;;;;;;;;;;;17.90;40.30;;;;;;5042686;28;19965;-64
2023/10/18 08:18:42;;;;;;;;;;;17.90;40.40;;;;;;5046790;28;19921;-63
2023/10/18 08:21:25;;;;;;;;;;;17.90;40.40;;;;;;5043703;28;19929;-64
2023/10/18 08:23:55;;;;;;;;;;;17.90;40.40;;;;;;5045764;28;19964;-63
2023/10/18 08:26:22;;;;;;;;;;;17.90;40.40;;;;;;5046307;28;20354;-63
2023/10/18 08:28:49;;;;;;;;;;;17.90;40.50;;;;;;5048696;28;19925;-64
2023/10/18 08:31:17;;;;;;;;;;;17.90;40.40;;;;;;5048058;28;19928;-63
2023/10/18 08:33:44;;;;;;;;;;;17.90;40.40;;;;;;5047931;28;19979;-63
2023/10/18 08:36:13;;;;;;;;;;;17.90;40.50;;;;;;5047332;28;19921;-64
2023/10/18 08:38:41;;;;;;;;;;;17.90;40.60;;;;;;5049414;28;19941;-63
2023/10/18 08:41:15;;;;;;;;;;;17.90;40.70;;;;;;5047244;28;19921;-63
2023/10/18 08:43:45;;;;;;;;;;;17.90;40.70;;;;;;5046329;28;19928;-63
2023/10/18 08:46:11;;;;;;;;;;;17.90;40.70;;;;;;5048215;28;20354;-63
2023/10/18 08:48:40;;;;;;;;;;;17.90;40.80;;;;;;5048551;28;19983;-64
2023/10/18 08:51:07;;;;;;;;;;;18.00;40.90;;;;;;5043295;28;20429;-63
2023/10/18 08:53:34;;;;;;;;;;;18.00;40.90;;;;;;5044291;28;19975;-63
2023/10/18 08:56:05;;;;;;;;;;;18.00;40.90;;;;;;5048233;28;19924;-62
2023/10/18 08:58:33;;;;;;;;;;;18.00;40.90;;;;;;5049708;28;19928;-63
2023/10/18 09:01:06;;;;;;;;;;;18.00;41.00;;;;;;5052188;28;19928;-64
2023/10/18 09:03:32;;;;;;;;;;;18.00;41.00;;;;;;5048362;28;20379;-63
2023/10/18 09:06:04;;;;;;;;;;;18.00;41.00;;;;;;5049818;28;19964;-62
2023/10/18 09:08:41;;;;;;;;;;;18.00;41.10;;;;;;5045165;28;19951;-64
2023/10/18 09:11:20;;;;;;;;;;;18.00;41.10;;;;;;5043258;28;19921;-64
2023/10/18 09:14:07;;;;;;;;;;;18.00;41.10;;;;;;5044125;28;20101;-63
2023/10/18 09:16:37;;;;;;;;;;;18.00;41.20;;;;;;5046132;28;19925;-63
2023/10/18 09:19:04;;;;;;;;;;;18.10;41.30;;;;;;5066887;28;19927;-63
2023/10/18 09:21:36;;;;;;;;;;;18.00;41.30;;;;;;5041227;28;19924;-63
2023/10/18 09:24:04;;;;;;;;;;;18.10;41.40;;;;;;5044697;28;19925;-64
2023/10/18 09:26:35;;;;;;;;;;;18.10;41.40;;;;;;5045720;28;20350;-63
2023/10/18 09:29:04;;;;;;;;;;;18.10;41.40;;;;;;5046533;28;19988;-63
2023/10/18 09:31:31;;;;;;;;;;;18.10;41.50;;;;;;5045290;28;19925;-63
2023/10/18 09:33:58;;;;;;;;;;;18.10;41.50;;;;;;5048886;28;19927;-63
2023/10/18 09:36:27;;;;;;;;;;;18.10;41.50;;;;;;5044766;28;19921;-64
2023/10/18 09:38:55;;;;;;;;;;;18.10;41.60;;;;;;5052975;28;19931;-64
2023/10/18 09:41:21;;;;;;;;;;;18.10;41.60;;;;;;5049820;28;19933;-63
2023/10/18 09:43:48;;;;;;;;;;;18.10;41.60;;;;;;5049494;28;19975;-64
2023/10/18 09:46:18;;;;;;;;;;;18.10;42.20;;;;;;5048609;28;19929;-63
2023/10/18 09:48:45;;;;;;;;;;;18.10;41.60;;;;;;5048115;28;19924;-63
2023/10/18 09:51:15;;;;;;;;;;;18.10;41.70;;;;;;5044847;28;19921;-63
2023/10/18 09:53:43;;;;;;;;;;;18.10;41.70;;;;;;5045695;28;19920;-64
2023/10/18 09:56:11;;;;;;;;;;;18.10;41.70;;;;;;5051619;28;19928;-64
2023/10/18 09:58:42;;;;;;;;;;;18.10;41.70;;;;;;5042472;28;19967;-64
2023/10/18 10:01:14;;;;;;;;;;;18.10;41.80;;;;;;5045018;28;19921;-63
2023/10/18 10:03:50;;;;;;;;;;;18.10;41.80;;;;;;5044919;28;19984;-63
2023/10/18 10:06:18;;;;;;;;;;;18.10;41.80;;;;;;5044064;28;19947;-64
2023/10/18 10:08:47;;;;;;;;;;;18.20;41.90;;;;;;5044426;28;19922;-63
2023/10/18 10:11:14;;;;;;;;;;;18.20;41.90;;;;;;5051219;28;19921;-64
2023/10/18 10:13:42;;;;;;;;;;;18.20;42.00;;;;;;5040904;28;20297;-63
2023/10/18 10:16:13;;;;;;;;;;;18.20;42.00;;;;;;5041329;28;19929;-64
2023/10/18 10:18:42;;;;;;;;;;;18.20;42.00;;;;;;5049861;28;19921;-64
2023/10/18 10:21:12;;;;;;;;;;;18.20;42.00;;;;;;5048619;28;19921;-64
2023/10/18 10:23:39;;;;;;;;;;;18.20;42.00;;;;;;5042989;28;20006;-63
2023/10/18 10:26:12;;;;;;;;;;;18.20;42.10;;;;;;5048287;28;19947;-64
2023/10/18 10:31:54;;;;;;;;;;;18.20;42.10;;;;;;5040005;28;19931;-63
2023/10/18 10:34:26;;;;;;;;;;;18.20;42.20;;;;;;5026822;28;19928;-63
2023/10/18 10:37:04;;;;;;;;;;;18.20;42.20;;;;;;5064215;28;19928;-63
2023/10/18 10:39:31;;;;;;;;;;;18.20;42.20;;;;;;5049316;28;19935;-63
2023/10/18 10:42:00;;;;;;;;;;;18.20;42.20;;;;;;5048932;28;20505;-63
2023/10/18 10:44:30;;;;;;;;;;;18.20;42.20;;;;;;5045397;28;20201;-64
2023/10/18 10:47:12;;;;;;;;;;;18.20;42.20;;;;;;5047849;28;19967;-64
2023/10/18 10:49:48;;;;;;;;;;;18.30;42.30;;;;;;5042934;28;19921;-64
2023/10/18 10:52:19;;;;;;;;;;;18.30;42.30;;;;;;5048164;28;19925;-63
2023/10/18 10:54:51;;;;;;;;;;;18.30;42.30;;;;;;5048790;28;19920;-65
2023/10/18 10:57:18;;;;;;;;;;;18.30;42.40;;;;;;5049662;28;19920;-64
2023/10/18 10:59:50;;;;;;;;;;;18.20;42.30;;;;;;5048870;28;19921;-64
2023/10/18 11:02:24;;;;;;;;;;;18.30;42.40;;;;;;5050515;28;19944;-64
2023/10/18 11:04:57;;;;;;;;;;;18.30;42.50;;;;;;5046977;28;19932;-64
2023/10/18 11:07:27;;;;;;;;;;;18.30;42.50;;;;;;5049847;28;19967;-63
2023/10/18 11:10:05;;;;;;;;;;;18.30;42.50;;;;;;5051477;28;19940;-63
2023/10/18 11:12:33;;;;;;;;;;;18.30;42.50;;;;;;5048374;28;20022;-64
2023/10/18 11:15:00;;;;;;;;;;;18.30;42.50;;;;;;5044150;28;19921;-64
2023/10/18 11:17:29;;;;;;;;;;;18.30;42.50;;;;;;5046524;28;19940;-64
2023/10/18 11:19:58;;;;;;;;;;;18.30;42.50;;;;;;5046963;28;19927;-64
2023/10/18 11:22:29;;;;;;;;;;;18.30;42.60;;;;;;5047889;28;19928;-64
2023/10/18 11:24:59;;;;;;;;;;;18.30;42.60;;;;;;5048121;28;19921;-64
2023/10/18 11:27:26;;;;;;;;;;;18.30;42.60;;;;;;5043531;28;19924;-64
2023/10/18 11:29:55;;;;;;;;;;;18.30;42.70;;;;;;5038926;28;19928;-64
2023/10/18 11:32:28;;;;;;;;;;;18.30;42.70;;;;;;5045918;28;19974;-64
2023/10/18 11:35:02;;;;;;;;;;;18.40;42.90;;;;;;5045677;28;19968;-64
2023/10/18 11:37:34;;;;;;;;;;;18.40;42.90;;;;;;5045672;28;19921;-65
2023/10/18 11:40:06;;;;;;;;;;;18.40;42.90;;;;;;5049654;28;19925;-64
2023/10/18 11:42:49;;;;;;;;;;;18.30;42.80;;;;;;5045403;28;19964;-64
2023/10/18 11:45:18;;;;;;;;;;;18.30;42.90;;;;;;5045062;28;19921;-64
2023/10/18 11:47:48;;;;;;;;;;;18.40;42.90;;;;;;5050168;28;19921;-64
2023/10/18 11:50:15;;;;;;;;;;;18.40;42.90;;;;;;5044035;28;19928;-64
2023/10/18 11:52:48;;;;;;;;;;;18.40;42.90;;;;;;5043899;28;19932;-64
2023/10/18 11:55:15;;;;;;;;;;;18.40;43.00;;;;;;5045611;28;19959;-64
2023/10/18 11:57:46;;;;;;;;;;;18.40;43.00;;;;;;5050140;28;20396;-65
2023/10/18 12:00:35;;;;;;;;;;;18.40;43.10;;;;;;5040151;28;19964;-64
2023/10/18 12:03:04;;;;;;;;;;;18.40;43.10;;;;;;5046983;28;20011;-64
2023/10/18 12:05:32;;;;;;;;;;;18.40;43.10;;;;;;5047763;28;19925;-64
2023/10/18 12:08:05;;;;;;;;;;;18.40;43.10;;;;;;5045885;28;19933;-64
2023/10/18 12:10:35;;;;;;;;;;;18.40;43.10;;;;;;5047105;28;19928;-65
2023/10/18 12:13:06;;;;;;;;;;;18.40;43.10;;;;;;5043728;28;19925;-64
2023/10/18 12:15:33;;;;;;;;;;;18.40;43.10;;;;;;5047139;28;19925;-64
2023/10/18 12:18:03;;;;;;;;;;;18.40;43.10;;;;;;5046182;28;19924;-63
2023/10/18 12:20:36;;;;;;;;;;;18.40;43.10;;;;;;5046065;28;19948;-64
2023/10/18 12:23:09;;;;;;;;;;;18.40;43.20;;;;;;5046147;28;19929;-64
2023/10/18 12:25:38;;;;;;;;;;;18.40;43.20;;;;;;5045517;28;19960;-64
2023/10/18 12:28:11;;;;;;;;;;;18.40;43.20;;;;;;5034477;28;19928;-63
2023/10/18 12:30:39;;;;;;;;;;;18.40;43.20;;;;;;5045504;28;20248;-64
2023/10/18 12:33:06;;;;;;;;;;;18.50;43.30;;;;;;5049736;28;19928;-64
2023/10/18 12:35:33;;;;;;;;;;;18.50;43.90;;;;;;5051270;28;19933;-64
2023/10/18 12:38:07;;;;;;;;;;;18.50;43.30;;;;;;5048965;28;19933;-65
2023/10/18 12:40:41;;;;;;;;;;;18.50;43.30;;;;;;5049817;28;20089;-64
2023/10/18 12:43:13;;;;;;;;;;;18.50;43.40;;;;;;5048785;28;19921;-64
2023/10/18 12:45:43;;;;;;;;;;;18.50;43.40;;;;;;5050016;28;19921;-64
2023/10/18 12:48:10;;;;;;;;;;;18.50;43.40;;;;;;5048550;28;19931;-64
2023/10/18 12:50:36;;;;;;;;;;;18.50;43.40;;;;;;5048610;28;19959;-63
2023/10/18 12:53:16;;;;;;;;;;;18.50;43.40;;;;;;5047255;28;19925;-63
2023/10/18 12:55:45;;;;;;;;;;;18.50;43.40;;;;;;5048095;28;19925;-65
2023/10/18 12:58:18;;;;;;;;;;;18.50;43.40;;;;;;5047734;28;20043;-64
2023/10/18 13:00:45;;;;;;;;;;;18.50;43.40;;;;;;5050250;28;19921;-64
2023/10/18 13:03:31;;;;;;;;;;;18.50;43.40;;;;;;5050851;28;19921;-64
2023/10/18 13:05:58;;;;;;;;;;;18.50;43.40;;;;;;5049153;28;19924;-64
2023/10/18 13:08:26;;;;;;;;;;;18.50;43.40;;;;;;5049932;28;19933;-64
2023/10/18 13:13:41;;;;;;;;;;;18.50;43.40;;;;;;5045356;28;20011;-65
2023/10/18 13:16:13;;;;;;;;;;;18.50;43.50;;;;;;5049356;28;19947;-64
2023/10/18 13:18:40;;;;;;;;;;;18.50;43.50;;;;;;5049221;28;19979;-64
2023/10/18 13:21:09;;;;;;;;;;;18.50;43.50;;;;;;5049843;28;20325;-64
2023/10/18 13:23:37;;;;;;;;;;;18.50;43.50;;;;;;5044653;28;19925;-64
2023/10/18 13:26:05;;;;;;;;;;;18.50;43.50;;;;;;5038850;28;19928;-64
2023/10/18 13:28:34;;;;;;;;;;;18.50;43.50;;;;;;5047497;28;19925;-64
2023/10/18 13:31:06;;;;;;;;;;;18.50;43.50;;;;;;5045938;28;19921;-64
2023/10/18 13:33:33;;;;;;;;;;;18.60;43.60;;;;;;5045291;28;19925;-64
2023/10/18 13:36:01;;;;;;;;;;;18.50;43.50;;;;;;5049991;28;19921;-64
2023/10/18 13:38:28;;;;;;;;;;;18.50;43.50;;;;;;5045725;28;19925;-64
2023/10/18 13:40:55;;;;;;;;;;;18.50;43.50;;;;;;5043350;28;19921;-64
2023/10/18 13:43:24;;;;;;;;;;;18.60;43.60;;;;;;5046451;28;20338;-64
2023/10/18 13:45:58;;;;;;;;;;;18.50;43.50;;;;;;5050325;28;19921;-63
2023/10/18 13:48:25;;;;;;;;;;;18.60;43.60;;;;;;5048335;28;19933;-64
2023/10/18 13:50:53;;;;;;;;;;;18.60;43.60;;;;;;5062745;28;19972;-64
2023/10/18 13:53:21;;;;;;;;;;;18.60;43.60;;;;;;5046856;28;19932;-64
2023/10/18 13:55:47;;;;;;;;;;;18.50;43.50;;;;;;5051084;28;19956;-65
2023/10/18 13:58:14;;;;;;;;;;;18.50;43.50;;;;;;5048113;28;19952;-66
2023/10/18 14:00:43;;;;;;;;;;;18.50;44.10;;;;;;5043356;28;19937;-64
2023/10/18 14:03:13;;;;;;;;;;;18.60;43.60;;;;;;5047496;28;19920;-65
2023/10/18 14:05:40;;;;;;;;;;;18.50;43.50;;;;;;5044648;28;20015;-64
2023/10/18 14:08:11;;;;;;;;;;;18.50;43.50;;;;;;5045955;28;19924;-64
2023/10/18 14:10:40;;;;;;;;;;;18.50;43.50;;;;;;5046096;28;19921;-64
2023/10/18 14:13:07;;;;;;;;;;;18.60;43.60;;;;;;5049040;28;19927;-64
2023/10/18 14:15:34;;;;;;;;;;;18.50;43.50;;;;;;5046518;28;19924;-64
2023/10/18 14:18:03;;;;;;;;;;;18.60;43.60;;;;;;5045642;28;19933;-65
2023/10/18 14:20:32;;;;;;;;;;;18.60;43.60;;;;;;5040684;28;19939;-64
2023/10/18 14:23:00;;;;;;;;;;;18.60;43.60;;;;;;5043605;28;19932;-64
2023/10/18 14:25:27;;;;;;;;;;;18.60;43.60;;;;;;5044158;28;19950;-64
2023/10/18 14:27:56;;;;;;;;;;;18.60;43.60;;;;;;5047202;28;19925;-65
2023/10/18 14:30:22;;;;;;;;;;;18.60;43.70;;;;;;5042370;28;19921;-64
2023/10/18 14:32:49;;;;;;;;;;;18.60;43.70;;;;;;5048412;28;19932;-64
2023/10/18 14:35:17;;;;;;;;;;;18.60;43.70;;;;;;5050516;28;19920;-65
2023/10/18 14:37:45;;;;;;;;;;;18.60;43.70;;;;;;5042818;28;20000;-64
2023/10/18 14:40:12;;;;;;;;;;;18.60;43.70;;;;;;5045783;28;19931;-64